createdAt,value
2018-07-09T00:00:15.030Z,93.27
2018-07-09T00:02:42.278Z,93.54
2018-07-09T00:05:09.421Z,94.03
2018-07-09T00:07:36.427Z,94.39
2018-07-09T00:10:03.467Z,94.38
2018-07-09T00:12:30.496Z,93.79
2018-07-09T00:14:57.526Z,94.11
2018-07-09T00:17:24.518Z,94.57
2018-07-09T00:19:51.630Z,94.50
2018-07-09T00:22:18.715Z,94.94
2018-07-09T00:24:45.791Z,94.76
2018-07-09T00:27:13.084Z,94.72
2018-07-09T00:29:40.111Z,95.32
2018-07-09T00:32:07.222Z,95.63
2018-07-09T00:34:34.246Z,95.73
2018-07-09T00:37:01.251Z,95.81
2018-07-09T00:39:28.341Z,95.95
2018-07-09T00:41:55.383Z,96.42
2018-07-09T00:44:22.400Z,96.50
2018-07-09T00:46:49.666Z,96.49
2018-07-09T00:49:16.786Z,96.60
2018-07-09T00:51:43.811Z,96.52
2018-07-09T00:54:10.858Z,96.67
2018-07-09T00:56:37.848Z,97.20
2018-07-09T00:59:04.856Z,97.86
2018-07-09T01:01:31.894Z,97.86
2018-07-09T01:03:58.994Z,98.02
2018-07-09T01:06:25.980Z,98.14
2018-07-09T01:08:53.022Z,98.11
2018-07-09T01:11:31.477Z,98.34
2018-07-09T01:13:58.505Z,98.03
2018-07-09T01:16:25.508Z,98.48
2018-07-09T01:18:52.553Z,98.22
2018-07-09T01:21:19.606Z,98.46
2018-07-09T01:23:46.648Z,98.87
2018-07-09T01:26:13.664Z,99.03
2018-07-09T01:28:41.441Z,99.33
2018-07-09T01:31:08.478Z,99.44
2018-07-09T01:33:37.345Z,99.04
2018-07-09T01:36:04.395Z,99.21
2018-07-09T01:38:31.489Z,99.50
2018-07-09T01:40:58.532Z,99.52
2018-07-09T01:43:25.560Z,99.23
2018-07-09T01:45:52.636Z,99.71
2018-07-09T01:48:19.662Z,99.83
2018-07-09T01:50:46.824Z,99.46
2018-07-09T01:53:13.825Z,99.53
2018-07-09T01:55:40.897Z,99.22
2018-07-09T01:58:07.896Z,99.07
2018-07-09T02:00:35.208Z,98.73
2018-07-09T02:03:02.225Z,99.18
2018-07-09T02:05:29.350Z,99.85
2018-07-09T02:07:56.459Z,99.70
2018-07-09T02:10:23.493Z,99.98
2018-07-09T02:12:50.509Z,100.00
2018-07-09T02:15:17.921Z,100.00
2018-07-09T02:17:45.038Z,99.96
2018-07-09T02:20:12.127Z,100.00
2018-07-09T02:22:39.133Z,100.00
2018-07-09T02:25:11.623Z,100.00
2018-07-09T02:27:41.088Z,100.00
2018-07-09T02:30:08.120Z,100.00
2018-07-09T02:32:35.211Z,100.00
2018-07-09T02:35:02.412Z,100.00
2018-07-09T02:37:29.422Z,100.00
2018-07-09T02:39:56.422Z,100.00
2018-07-09T02:42:23.438Z,100.00
2018-07-09T02:44:50.458Z,100.00
2018-07-09T02:47:17.545Z,100.00
2018-07-09T02:49:44.565Z,100.00
2018-07-09T02:52:12.422Z,100.00
2018-07-09T02:54:39.427Z,100.00
2018-07-09T02:57:06.448Z,100.00
2018-07-09T02:59:33.500Z,100.00
2018-07-09T03:02:00.501Z,100.00
2018-07-09T03:04:27.679Z,100.00
2018-07-09T03:06:54.812Z,100.00
2018-07-09T03:09:21.818Z,100.00
2018-07-09T03:11:48.889Z,100.00
2018-07-09T03:14:15.933Z,100.00
2018-07-09T03:16:42.890Z,100.00
2018-07-09T03:19:09.943Z,100.00
2018-07-09T03:21:36.932Z,100.00
2018-07-09T03:24:03.981Z,100.00
2018-07-09T03:26:31.026Z,100.00
2018-07-09T03:28:58.030Z,100.00
2018-07-09T03:31:25.065Z,100.00
2018-07-09T03:33:52.064Z,100.00
2018-07-09T03:36:19.093Z,100.00
2018-07-09T03:38:46.206Z,100.00
2018-07-09T03:41:13.294Z,100.00
2018-07-09T03:43:40.285Z,100.00
2018-07-09T03:46:07.287Z,100.00
2018-07-09T03:48:34.301Z,100.00
2018-07-09T03:51:01.318Z,100.00
2018-07-09T03:53:28.316Z,100.00
2018-07-09T03:55:55.341Z,100.00
2018-07-09T03:58:22.341Z,100.00
2018-07-09T04:00:49.341Z,100.00
2018-07-09T04:03:17.828Z,100.00
2018-07-09T04:05:46.383Z,100.00
2018-07-09T04:08:13.518Z,100.00
2018-07-09T04:10:41.966Z,100.00
2018-07-09T04:13:09.120Z,100.00
2018-07-09T04:15:36.287Z,100.00
2018-07-09T04:18:03.296Z,100.00
2018-07-09T04:20:30.317Z,100.00
2018-07-09T04:22:57.318Z,100.00
2018-07-09T04:25:25.423Z,100.00
2018-07-09T04:27:52.420Z,98.59
2018-07-09T04:30:19.429Z,98.86
2018-07-09T04:32:46.436Z,99.37
2018-07-09T04:35:20.463Z,99.40
2018-07-09T04:37:47.751Z,99.33
2018-07-09T04:40:14.749Z,99.10
2018-07-09T04:42:41.725Z,98.86
2018-07-09T04:45:08.809Z,98.60
2018-07-09T04:47:35.796Z,98.57
2018-07-09T04:50:03.560Z,98.48
2018-07-09T04:52:31.448Z,98.80
2018-07-09T04:54:58.501Z,98.62
2018-07-09T04:57:25.667Z,98.67
2018-07-09T04:59:52.677Z,98.54
2018-07-09T05:02:19.789Z,98.62
2018-07-09T05:04:47.857Z,98.22
2018-07-09T05:07:15.057Z,98.05
2018-07-09T05:09:42.096Z,97.94
2018-07-09T05:12:09.215Z,97.55
2018-07-09T05:14:36.299Z,97.59
2018-07-09T05:17:03.445Z,97.98
2018-07-09T05:19:30.500Z,97.60
2018-07-09T05:21:57.526Z,97.31
2018-07-09T05:24:24.620Z,97.74
2018-07-09T05:26:52.009Z,97.91
2018-07-09T05:29:19.029Z,97.87
2018-07-09T05:31:46.136Z,97.92
2018-07-09T05:34:13.240Z,97.82
2018-07-09T05:36:40.268Z,97.16
2018-07-09T05:39:07.604Z,97.75
2018-07-09T05:41:34.701Z,97.66
2018-07-09T05:44:02.177Z,97.65
2018-07-09T05:46:29.255Z,97.90
2018-07-09T05:48:57.041Z,97.36
2018-07-09T05:51:24.322Z,97.34
2018-07-09T05:53:51.414Z,97.00
2018-07-09T05:56:18.541Z,97.10
2018-07-09T05:58:45.588Z,96.78
2018-07-09T06:01:12.857Z,97.08
2018-07-09T06:03:40.052Z,97.33
2018-07-09T06:06:07.222Z,96.92
2018-07-09T06:08:34.365Z,96.67
2018-07-09T06:11:01.545Z,96.56
2018-07-09T06:13:29.324Z,96.93
2018-07-09T06:15:56.476Z,96.67
2018-07-09T06:18:23.730Z,95.92
2018-07-09T06:20:50.853Z,96.49
2018-07-09T06:23:18.383Z,96.02
2018-07-09T06:25:45.452Z,95.77
2018-07-09T06:28:12.672Z,95.96
2018-07-09T06:30:39.906Z,95.60
2018-07-09T06:33:06.925Z,96.10
2018-07-09T06:35:33.941Z,96.39
2018-07-09T06:38:01.736Z,95.91
2018-07-09T06:40:29.052Z,95.98
2018-07-09T06:42:57.794Z,94.65
2018-07-09T06:45:25.725Z,94.23
2018-07-09T06:47:52.816Z,94.19
2018-07-09T06:50:19.940Z,92.66
2018-07-09T06:52:47.157Z,92.77
2018-07-09T06:55:14.393Z,91.36
2018-07-09T06:57:41.780Z,91.24
2018-07-09T07:00:08.816Z,91.70
2018-07-09T07:02:35.926Z,90.92
2018-07-09T07:05:02.965Z,90.50
2018-07-09T07:07:30.022Z,90.92
2018-07-09T07:09:57.019Z,89.87
2018-07-09T07:12:24.037Z,90.61
2018-07-09T07:14:51.258Z,89.65
2018-07-09T07:17:18.311Z,91.76
2018-07-09T07:19:45.350Z,91.22
2018-07-09T07:22:12.397Z,91.15
2018-07-09T07:24:39.392Z,90.53
2018-07-09T07:27:06.454Z,89.74
2018-07-09T07:29:33.501Z,88.99
2018-07-09T07:32:00.522Z,87.81
2018-07-09T07:34:27.579Z,87.33
2018-07-09T07:36:54.740Z,86.48
2018-07-09T07:39:21.833Z,85.98
2018-07-09T07:41:48.799Z,85.58
2018-07-09T07:44:15.990Z,83.68
2018-07-09T07:46:43.214Z,84.59
2018-07-09T07:49:10.249Z,83.21
2018-07-09T07:51:37.807Z,83.23
2018-07-09T07:56:38.932Z,79.33
2018-07-09T07:59:05.976Z,80.17
2018-07-09T08:01:32.998Z,79.30
2018-07-09T08:04:00.985Z,79.12
2018-07-09T08:06:28.001Z,78.08
2018-07-09T08:08:55.098Z,78.30
2018-07-09T08:11:47.688Z,76.69
2018-07-09T08:13:49.354Z,75.40
2018-07-09T08:16:16.424Z,74.32
2018-07-09T08:18:43.573Z,73.48
2018-07-09T08:21:10.658Z,71.97
2018-07-09T08:23:37.830Z,71.09
2018-07-09T08:26:04.925Z,72.38
2018-07-09T08:28:32.075Z,72.66
2018-07-09T08:30:59.404Z,71.18
2018-07-09T08:33:26.405Z,70.81
2018-07-09T08:35:53.476Z,71.02
2018-07-09T08:38:20.686Z,69.97
2018-07-09T08:40:47.775Z,71.04
2018-07-09T08:43:14.986Z,71.10
2018-07-09T08:45:42.145Z,70.44
2018-07-09T08:48:10.733Z,67.96
2018-07-09T08:50:37.825Z,67.33
2018-07-09T08:53:05.082Z,65.94
2018-07-09T08:55:32.194Z,65.95
2018-07-09T08:57:59.220Z,65.74
2018-07-09T09:00:26.262Z,64.62
2018-07-09T09:02:53.285Z,65.66
2018-07-09T09:05:21.263Z,66.27
2018-07-09T09:07:48.303Z,66.27
2018-07-09T09:10:15.568Z,67.79
2018-07-09T09:12:42.614Z,68.97
2018-07-09T09:15:09.797Z,69.16
2018-07-09T09:17:36.874Z,69.58
2018-07-09T09:20:03.953Z,69.69
2018-07-09T09:22:31.046Z,69.18
2018-07-09T09:24:58.094Z,67.54
2018-07-09T09:27:25.298Z,68.09
2018-07-09T09:29:52.336Z,69.00
2018-07-09T09:32:19.409Z,68.09
2018-07-09T09:34:46.438Z,66.27
2018-07-09T09:37:13.583Z,64.02
2018-07-09T09:39:40.642Z,66.07
2018-07-09T09:42:07.732Z,64.73
2018-07-09T09:44:35.954Z,63.19
2018-07-09T09:47:03.102Z,60.04
2018-07-09T09:49:30.388Z,61.21
2018-07-09T09:51:57.485Z,60.89
2018-07-09T09:54:24.693Z,60.88
2018-07-09T09:56:51.849Z,59.54
2018-07-09T09:59:18.913Z,60.42
2018-07-09T10:01:45.965Z,60.26
2018-07-09T10:04:12.980Z,61.33
2018-07-09T10:06:40.007Z,62.20
2018-07-09T10:09:07.574Z,63.07
2018-07-09T10:11:34.630Z,61.81
2018-07-09T10:14:01.746Z,61.29
2018-07-09T10:16:28.866Z,62.12
2018-07-09T10:18:56.797Z,61.32
2018-07-09T10:21:23.901Z,61.19
2018-07-09T10:23:51.024Z,60.60
2018-07-09T10:26:18.445Z,59.63
2018-07-09T10:28:45.489Z,60.33
2018-07-09T10:31:12.670Z,61.32
2018-07-09T10:33:39.721Z,62.11
2018-07-09T10:36:07.334Z,61.52
2018-07-09T10:38:34.427Z,62.30
2018-07-09T10:41:01.511Z,61.86
2018-07-09T10:43:28.548Z,62.28
2018-07-09T10:45:55.655Z,62.73
2018-07-09T10:48:22.721Z,62.82
2018-07-09T10:50:49.784Z,63.51
2018-07-09T10:53:16.931Z,61.50
2018-07-09T10:55:44.648Z,62.89
2018-07-09T10:58:11.657Z,62.70
2018-07-09T11:00:38.808Z,62.96
2018-07-09T11:03:05.943Z,63.02
2018-07-09T11:05:33.010Z,59.09
2018-07-09T11:08:00.275Z,58.83
2018-07-09T11:10:27.364Z,59.38
2018-07-09T11:12:54.530Z,58.46
2018-07-09T11:15:21.556Z,57.40
2018-07-09T11:17:48.565Z,59.47
2018-07-09T11:20:15.652Z,59.52
2018-07-09T11:22:42.732Z,59.89
2018-07-09T11:25:09.798Z,60.01
2018-07-09T11:27:36.950Z,60.87
2018-07-09T11:30:04.930Z,60.70
2018-07-09T11:32:32.119Z,61.02
2018-07-09T11:34:59.763Z,61.23
2018-07-09T11:37:26.867Z,60.54
2018-07-09T11:39:53.943Z,59.70
2018-07-09T11:42:21.087Z,60.56
2018-07-09T11:44:55.513Z,59.98
2018-07-09T11:47:25.678Z,60.08
2018-07-09T11:49:52.739Z,60.62
2018-07-09T11:52:19.793Z,58.94
2018-07-09T11:54:46.884Z,58.58
2018-07-09T11:57:14.009Z,57.41
2018-07-09T11:59:41.092Z,58.34
2018-07-09T12:02:09.095Z,58.44
2018-07-09T12:04:36.162Z,58.73
2018-07-09T12:07:03.257Z,59.23
2018-07-09T12:09:31.024Z,58.77
2018-07-09T12:11:58.094Z,59.04
2018-07-09T12:14:25.163Z,58.89
2018-07-09T12:16:52.434Z,59.14
2018-07-09T12:19:19.630Z,59.40
2018-07-09T12:21:46.818Z,60.02
2018-07-09T12:24:14.126Z,60.16
2018-07-09T12:26:41.212Z,60.63
2018-07-09T12:29:08.334Z,61.10
2018-07-09T12:31:35.429Z,60.91
2018-07-09T12:34:02.501Z,61.37
2018-07-09T12:36:29.788Z,61.21
2018-07-09T12:38:56.895Z,60.93
2018-07-09T12:41:24.072Z,62.24
2018-07-09T12:43:51.184Z,62.96
2018-07-09T12:46:18.243Z,62.88
2018-07-09T12:48:45.316Z,64.65
2018-07-09T12:51:12.719Z,63.77
2018-07-09T12:53:39.808Z,63.90
2018-07-09T12:56:06.887Z,63.35
2018-07-09T12:58:33.983Z,63.01
2018-07-09T13:01:01.091Z,62.68
2018-07-09T13:03:28.225Z,62.90
2018-07-09T13:05:55.343Z,63.47
2018-07-09T13:08:22.442Z,61.70
2018-07-09T13:10:49.535Z,61.04
2018-07-09T13:13:16.638Z,60.68
2018-07-09T13:15:43.724Z,60.70
2018-07-09T13:18:10.794Z,60.34
2018-07-09T13:20:37.899Z,60.78
2018-07-09T13:23:05.050Z,59.91
2018-07-09T13:25:32.140Z,60.53
2018-07-09T13:27:59.256Z,60.32
2018-07-09T13:30:26.332Z,60.07
2018-07-09T13:32:53.372Z,59.95
2018-07-09T13:35:20.533Z,61.05
2018-07-09T13:37:47.656Z,61.63
2018-07-09T13:40:14.785Z,61.19
2018-07-09T13:42:41.905Z,61.14
2018-07-09T13:45:08.988Z,61.42
2018-07-09T13:47:36.051Z,61.81
2018-07-09T13:50:03.391Z,62.73
2018-07-09T13:52:30.579Z,62.17
2018-07-09T13:54:57.746Z,63.10
2018-07-09T13:57:24.819Z,63.42
2018-07-09T13:59:51.927Z,62.45
2018-07-09T14:02:19.826Z,63.29
2018-07-09T14:04:46.895Z,62.52
2018-07-09T14:07:14.017Z,63.21
2018-07-09T14:09:41.135Z,62.91
2018-07-09T14:12:08.243Z,63.64
2018-07-09T14:14:35.341Z,62.66
2018-07-09T14:17:02.458Z,62.32
2018-07-09T14:20:39.855Z,60.42
2018-07-09T14:23:08.059Z,60.66
2018-07-09T14:25:35.264Z,59.39
2018-07-09T14:28:02.454Z,59.70
2018-07-09T14:30:29.563Z,59.02
2018-07-09T14:32:56.650Z,59.36
2018-07-09T14:35:23.936Z,59.47
2018-07-09T14:37:52.570Z,60.17
2018-07-09T14:40:19.794Z,59.67
2018-07-09T14:42:46.892Z,60.46
2018-07-09T14:45:14.121Z,59.85
2018-07-09T14:47:41.161Z,60.25
2018-07-09T14:50:08.616Z,59.31
2018-07-09T14:52:35.736Z,59.71
2018-07-09T14:55:02.942Z,57.69
2018-07-09T14:57:30.071Z,58.85
2018-07-09T14:59:57.143Z,59.34
2018-07-09T15:02:24.266Z,60.94
2018-07-09T15:04:51.764Z,61.08
2018-07-09T15:07:18.888Z,61.55
2018-07-09T15:09:46.023Z,62.25
2018-07-09T15:12:13.183Z,62.75
2018-07-09T15:14:40.292Z,63.71
2018-07-09T15:17:07.766Z,62.94
2018-07-09T15:19:34.889Z,62.06
2018-07-09T15:22:02.007Z,61.12
2018-07-09T15:24:29.111Z,62.26
2018-07-09T15:26:56.211Z,61.53
2018-07-09T15:29:23.362Z,61.51
2018-07-09T15:32:02.102Z,60.24
2018-07-09T15:34:29.178Z,60.50
2018-07-09T15:36:56.282Z,61.72
2018-07-09T15:39:23.369Z,61.76
2018-07-09T15:41:50.462Z,62.10
2018-07-09T15:44:17.630Z,62.95
2018-07-09T15:46:44.787Z,61.94
2018-07-09T15:49:11.939Z,61.56
2018-07-09T15:51:39.044Z,62.17
2018-07-09T15:54:06.118Z,61.52
2018-07-09T15:56:33.259Z,63.02
2018-07-09T15:59:00.330Z,63.94
2018-07-09T16:01:28.004Z,63.93
2018-07-09T16:03:55.157Z,64.37
2018-07-09T16:06:22.658Z,65.46
2018-07-09T16:08:49.767Z,65.88
2018-07-09T16:11:18.104Z,66.80
2018-07-09T16:13:45.393Z,67.65
2018-07-09T16:16:13.406Z,68.28
2018-07-09T16:18:40.962Z,68.23
2018-07-09T16:21:08.439Z,68.95
2018-07-09T16:23:35.866Z,69.29
2018-07-09T16:26:03.353Z,69.17
2018-07-09T16:28:30.474Z,69.41
2018-07-09T16:30:57.586Z,69.95
2018-07-09T16:33:24.719Z,69.09
2018-07-09T16:35:51.799Z,69.78
2018-07-09T16:38:18.887Z,68.73
2018-07-09T16:40:46.046Z,69.78
2018-07-09T16:43:13.138Z,68.30
2018-07-09T16:45:40.223Z,68.00
2018-07-09T16:48:07.413Z,67.40
2018-07-09T16:50:34.525Z,67.63
2018-07-09T16:53:01.624Z,66.65
2018-07-09T16:55:29.127Z,67.41
2018-07-09T16:57:56.850Z,66.69
2018-07-09T17:00:23.965Z,66.60
2018-07-09T17:02:51.187Z,66.26
2018-07-09T17:05:18.288Z,65.43
2018-07-09T17:07:45.400Z,66.12
2018-07-09T17:10:12.527Z,64.53
2018-07-09T17:12:39.895Z,63.45
2018-07-09T17:15:07.006Z,64.50
2018-07-09T17:17:34.149Z,64.84
2018-07-09T17:20:01.272Z,65.80
2018-07-09T17:22:28.369Z,65.39
2018-07-09T17:24:55.448Z,66.23
2018-07-09T17:27:22.661Z,66.07
2018-07-09T17:29:49.765Z,66.94
2018-07-09T17:32:16.838Z,66.70
2018-07-09T17:34:44.003Z,66.68
2018-07-09T17:37:11.099Z,66.89
2018-07-09T17:39:38.246Z,67.22
2018-07-09T17:42:05.563Z,67.87
2018-07-09T17:44:32.681Z,68.05
2018-07-09T17:46:59.743Z,68.47
2018-07-09T17:49:26.855Z,68.31
2018-07-09T17:51:53.951Z,69.14
2018-07-09T17:54:21.347Z,68.70
2018-07-09T17:56:48.420Z,69.32
2018-07-09T17:59:15.543Z,69.82
2018-07-09T18:01:42.747Z,70.47
2018-07-09T18:04:09.824Z,70.28
2018-07-09T18:06:36.934Z,70.24
2018-07-09T18:09:04.976Z,70.57
2018-07-09T18:11:32.056Z,70.92
2018-07-09T18:13:59.190Z,71.21
2018-07-09T18:16:26.485Z,71.92
2018-07-09T18:18:53.569Z,72.21
2018-07-09T18:21:20.705Z,72.36
2018-07-09T18:23:47.796Z,73.32
2018-07-09T18:26:14.877Z,73.19
2018-07-09T18:28:41.966Z,73.74
2018-07-09T18:31:09.110Z,74.20
2018-07-09T18:33:36.240Z,72.71
2018-07-09T18:36:03.452Z,73.86
2018-07-09T18:38:32.388Z,74.42
2018-07-09T18:40:59.491Z,74.84
2018-07-09T18:43:27.030Z,74.82
2018-07-09T18:45:54.137Z,74.08
2018-07-09T18:48:22.064Z,74.53
2018-07-09T18:50:49.199Z,74.83
2018-07-09T18:53:16.303Z,74.45
2018-07-09T18:55:43.524Z,73.85
2018-07-09T18:58:10.601Z,74.22
2018-07-09T19:00:37.739Z,74.68
2018-07-09T19:03:05.194Z,74.71
2018-07-09T19:06:46.778Z,74.02
2018-07-09T19:09:13.936Z,73.06
2018-07-09T19:11:41.728Z,72.86
2018-07-09T19:14:09.400Z,72.60
2018-07-09T19:16:48.321Z,72.61
2018-07-09T19:19:26.995Z,72.53
2018-07-09T19:22:00.199Z,72.50
2018-07-09T19:24:26.655Z,73.04
2018-07-09T19:26:53.102Z,72.79
2018-07-09T19:29:19.211Z,73.42
2018-07-09T19:31:45.321Z,73.70
2018-07-09T19:34:11.459Z,73.57
2018-07-09T19:36:37.671Z,74.11
2018-07-09T19:39:04.542Z,74.18
2018-07-09T19:41:30.711Z,74.50
2018-07-09T19:43:56.770Z,74.43
2018-07-09T19:46:22.924Z,74.32
2018-07-09T19:48:49.059Z,74.80
2018-07-09T19:51:15.203Z,75.19
2018-07-09T19:53:41.494Z,75.10
2018-07-09T19:56:07.620Z,74.66
2018-07-09T19:58:33.720Z,75.01
2018-07-09T20:00:59.881Z,75.39
2018-07-09T20:03:26.075Z,75.31
2018-07-09T20:05:52.249Z,75.15
2018-07-09T20:08:18.396Z,75.83
2018-07-09T20:10:50.343Z,75.59
2018-07-09T20:13:22.148Z,75.52
2018-07-09T20:15:53.877Z,75.57
2018-07-09T20:18:19.994Z,76.11
2018-07-09T20:20:46.122Z,75.86
2018-07-09T20:23:12.227Z,77.17
2018-07-09T20:28:04.499Z,77.67
2018-07-09T20:30:30.607Z,77.30
2018-07-09T20:32:56.843Z,77.59
2018-07-09T20:35:22.982Z,78.32
2018-07-09T20:37:49.082Z,78.21
2018-07-09T20:40:15.272Z,78.16
2018-07-09T20:42:41.419Z,77.45
2018-07-09T20:45:07.530Z,77.80
2018-07-09T20:47:33.964Z,77.45
2018-07-09T20:50:00.115Z,77.38
2018-07-09T20:52:26.285Z,77.03
2018-07-09T20:54:52.400Z,77.81
2018-07-09T20:57:18.780Z,77.10
2018-07-09T20:59:44.893Z,77.12
2018-07-09T21:02:11.007Z,77.30
2018-07-09T21:04:37.141Z,77.51
2018-07-09T21:07:03.680Z,77.28
2018-07-09T21:09:30.890Z,77.32
2018-07-09T21:11:57.643Z,77.97
2018-07-09T21:14:23.791Z,77.54
2018-07-09T21:16:50.008Z,78.06
2018-07-09T21:19:16.133Z,77.99
2018-07-09T21:21:42.279Z,78.24
2018-07-09T21:24:08.438Z,78.51
2018-07-09T21:26:34.574Z,78.97
2018-07-09T21:29:00.687Z,81.68
2018-07-09T21:31:26.828Z,78.09
2018-07-09T21:33:52.990Z,78.83
2018-07-09T21:36:19.093Z,79.44
2018-07-09T21:38:45.220Z,81.37
2018-07-09T21:41:11.792Z,81.49
2018-07-09T21:43:38.156Z,81.67
2018-07-09T21:46:04.399Z,83.48
2018-07-09T21:48:30.951Z,84.38
2018-07-09T21:50:56.998Z,85.04
2018-07-09T21:53:24.084Z,85.91
2018-07-09T21:55:50.316Z,86.25
2018-07-09T21:58:16.431Z,86.62
2018-07-09T22:00:42.563Z,87.35
2018-07-09T22:03:08.693Z,87.73
2018-07-09T22:05:34.841Z,87.64
2018-07-09T22:08:00.993Z,88.05
2018-07-09T22:10:27.109Z,88.51
2018-07-09T22:12:53.222Z,88.52
2018-07-09T22:15:19.369Z,89.25
2018-07-09T22:17:45.487Z,89.69
2018-07-09T22:20:11.613Z,89.77
2018-07-09T22:22:37.704Z,89.23
2018-07-09T22:27:36.996Z,88.91
2018-07-09T22:30:03.104Z,89.99
2018-07-09T22:32:30.219Z,90.25
2018-07-09T22:34:57.329Z,91.13
2018-07-09T22:37:24.455Z,91.64
2018-07-09T22:39:51.573Z,92.35
2018-07-09T22:42:19.156Z,92.68
2018-07-09T22:44:46.377Z,92.38
2018-07-09T22:47:13.462Z,93.15
2018-07-09T22:49:40.604Z,93.36
2018-07-09T22:52:07.871Z,94.23
2018-07-09T22:54:35.318Z,94.86
2018-07-09T22:57:02.460Z,95.12
2018-07-09T22:59:29.626Z,95.12
2018-07-09T23:01:56.754Z,94.96
2018-07-09T23:04:24.109Z,95.22
2018-07-09T23:06:51.184Z,95.82
2018-07-09T23:10:04.212Z,95.37
2018-07-09T23:13:42.381Z,95.30
2018-07-09T23:16:49.338Z,95.39
2018-07-09T23:19:30.146Z,95.23
2018-07-09T23:22:21.013Z,96.32
2018-07-09T23:24:47.147Z,95.48
2018-07-09T23:27:13.374Z,95.63
2018-07-09T23:29:39.523Z,95.83
2018-07-09T23:32:05.619Z,96.06
2018-07-09T23:34:31.776Z,96.04
2018-07-09T23:36:57.866Z,96.27
2018-07-09T23:39:24.009Z,96.26
2018-07-09T23:41:50.149Z,96.26
2018-07-09T23:44:16.268Z,96.87
2018-07-09T23:46:42.354Z,97.17
2018-07-09T23:49:08.500Z,97.05
2018-07-09T23:51:34.977Z,97.10
2018-07-09T23:54:01.093Z,96.90
2018-07-09T23:57:12.384Z,97.33
2018-07-09T23:59:51.655Z,97.76
